National Weather Service Raw Text Product

Displaying AFOS PIL: TAFOTM Received: 2018-02-09 13:33 UTC


457 
FTUS43 KDMX 091333 AAA
TAFOTM
TAF AMD
KOTM 091333Z 0914/1012 02014KT 2SM -SN OVC009
     FM091530 02015KT P6SM OVC040
     FM092100 02011KT P6SM OVC026
     FM092300 01010KT P6SM OVC030
     FM100300 36012KT 1 1/2SM -SN OVC018=